• Join FlightAware (Why Join?)
  • Login
  • US Flag 
08:29PM EDT


 

Airport Tracker/Info


-or-


 

Live Flight TrackerFlight Track Log ✈ RPA4886 ✈ 03-May-2013 ✈ KALB - KIAD

Flight Track Log - Related Links

Times and Time Zones

All times are in EDT time to prevent confusion due to time zone crossing. See the RPA4886 flight status page for this flight to view local times or setup timezone preferences in your user account.

Time Position Orientation Groundspeed Altitude Reporting Facility
EDT Latitude Longitude Course Direction KTS MPH feet Rate Location/Type
07:37PM 42.7069 -73.8047 174° South 172 198 2,200  Level Boston Center
07:37PM 42.6769 -73.8578 232° Southwest 228 262 4,300 2,520 Climbing Boston Center
07:38PM 42.6867 -73.9342 280° West 228 262 6,900 2,640 Climbing Boston Center
07:39PM 42.7334 -74.1876 270° West  Level FlightAware Approximate
07:39PM 42.7000 -74.0222 282° West 243 280 9,600  Level Boston Center
07:40PM 42.7264 -74.3139 236° Southwest  Level FlightAware Approximate
07:40PM 42.7133 -74.1100 282° West 238 274 11,900  Level Boston Center
07:41PM 42.6569 -74.4007 220° Southwest  Level FlightAware Approximate
07:41PM 42.7247 -74.1756 283° West 238 274 13,400  Level Boston Center
07:42PM 42.7394 -74.3058 279° West 263 303 15,400 1,740 Climbing Boston Center
07:43PM 42.6881 -74.3778 226° Southwest 269 310 16,900 1,320 Climbing Boston Center
07:44PM 42.6181 -74.4575 220° Southwest 289 333 18,100 1,260 Climbing Boston Center
07:45PM 42.5642 -74.5458 230° Southwest 304 350 19,500 900 Climbing Boston Center
07:46PM 42.5061 -74.6397 230° Southwest 314 361 20,000 240 Climbing Boston Center
07:47PM 42.4417 -74.7386 229° Southwest 334 384 20,000  Level Boston Center
07:48PM 42.3836 -74.8322 230° Southwest 357 411 20,000  Level Boston Center
07:51PM 42.2153 -75.0883 228° Southwest 381 438 20,000  Level New York Center
07:52PM 42.1428 -75.1956 228° Southwest 381 438 20,000  Level New York Center
07:53PM 42.0764 -75.3028 230° Southwest 381 438 20,000  Level New York Center
07:54PM 42.0136 -75.4156 233° Southwest 381 438 20,000  Level New York Center
07:55PM 41.9589 -75.5372 239° Southwest 381 438 20,000  Level New York Center
07:56PM 41.8981 -75.6528 235° Southwest 381 438 20,000  Level New York Center
07:57PM 41.8411 -75.7711 237° Southwest 381 438 20,000  Level New York Center
07:58PM 41.7839 -75.8864 236° Southwest 381 438 20,000  Level New York Center
07:59PM 41.7269 -76.0017 237° Southwest 381 438 20,000  Level New York Center
08:00PM 41.6719 -76.1139 237° Southwest 381 438 20,000 -840 Level New York Center
08:01PM 41.6125 -76.2311 236° Southwest 381 438 18,400 -1,800 Descending New York Center
08:02PM 41.5483 -76.3561 236° Southwest 381 438 16,400 -1,200 Descending New York Center
08:03PM 41.4908 -76.4678 236° Southwest 381 438 16,000 -240 Descending New York Center
08:04PM 41.4353 -76.5847 238° Southwest 381 438 16,000  Level New York Center
08:05PM 41.3775 -76.6989 236° Southwest 375 432 16,000  Level New York Center
08:06PM 41.3025 -76.7833 220° Southwest 359 413 16,000  Level New York Center
08:07PM 41.2014 -76.8047 189° South 348 400 16,000  Level New York Center
08:08PM 41.1003 -76.8258 189° South 359 413 16,000  Level New York Center
08:09PM 40.9972 -76.8442 188° South 365 420 16,000  Level New York Center
08:10PM 40.8983 -76.8658 189° South 370 426 16,000  Level New York Center
08:11PM 40.8056 -76.8822 188° South 375 432 16,000  Level New York Center
08:12PM 40.6958 -76.9133 192° South 375 432 16,000  Level New York Center
08:13PM 40.6067 -76.9436 194° South 375 432 16,100  Climbing New York Center
08:14PM 40.4986 -76.9778 194° South 375 432 16,000 -60 Descending New York Center
08:15PM 40.4075 -77.0050 193° South 375 432 16,000 -540 Level New York Center
08:16PM 40.2972 -77.0386 193° South 375 432 15,000 -1,260 Descending New York Center
08:18PM 40.1167 -77.1000 195° South 309 356 12,200 -1,320 Descending Potomac TRACON
08:19PM 40.0167 -77.1167 187° South 298 343 10,800 -1,320 Descending Potomac TRACON
08:20PM 39.9500 -77.1500 201° Southwest 271 312 9,500 -1,020 Descending Potomac TRACON
08:21PM 39.8833 -77.1667 191° South 271 312 8,900 -840 Descending Potomac TRACON
08:22PM 39.8167 -77.2167 210° Southwest 264 304 8,000 -900 Descending Potomac TRACON
08:23PM 39.7500 -77.2500 201° Southwest 267 307 7,100 -540 Descending Potomac TRACON
08:24PM 39.6833 -77.3000 210° Southwest 255 293 7,000 -60 Descending Potomac TRACON
08:25PM 39.6167 -77.3333 201° Southwest 255 293 7,000  Level Potomac TRACON
08:26PM 39.5500 -77.3667 201° Southwest 267 307 7,000 -600 Level Potomac TRACON
08:27PM 39.4833 -77.4167 210° Southwest 257 296 5,800 -960 Descending Potomac TRACON
08:28PM 39.4167 -77.4500 201° Southwest 250 288 5,100 -420 Descending Potomac TRACON
08:29PM 39.3500 -77.4500 180° South 241 277 5,000 -120 Descending Potomac TRACON
08:30PM 39.2833 -77.4500 180° South 241 277 4,900 -480 Descending Potomac TRACON
08:31PM 39.2167 -77.4500 180° South 238 274 4,100 -540 Descending Potomac TRACON
08:32PM 39.1500 -77.4500 180° South 229 264 3,900 -660 Descending Potomac TRACON
08:33PM 39.1000 -77.4500 180° South 203 234 2,800 -1,080 Descending Potomac TRACON
08:34PM 39.0500 -77.4667 195° South 164 189 1,800 -900 Descending Potomac TRACON
08:35PM 39.0000 -77.4667 180° South 125 144 1,100 -720 Descending Potomac TRACON